createdAt,value
2022-09-23T04:30:55.324Z,6.00
2022-09-23T04:31:55.308Z,6.10
2022-09-23T04:32:55.264Z,6.16
2022-09-23T04:33:55.325Z,6.14
2022-09-23T04:34:55.235Z,6.13
2022-09-23T04:35:55.224Z,6.11
2022-09-23T04:36:55.224Z,6.09
2022-09-23T04:37:55.194Z,6.04
2022-09-23T04:38:55.223Z,6.03
2022-09-23T04:39:55.184Z,6.01
2022-09-23T04:40:55.221Z,5.98
2022-09-23T04:41:55.151Z,5.96
2022-09-23T04:42:55.134Z,5.93
2022-09-23T04:43:55.132Z,5.93
2022-09-23T04:44:55.112Z,5.93
2022-09-23T04:46:02.185Z,5.92
2022-09-23T04:46:55.128Z,5.88
2022-09-23T04:47:55.069Z,5.86
2022-09-23T04:48:55.066Z,5.82
2022-09-23T04:49:59.596Z,5.78
2022-09-23T04:50:55.026Z,5.78
2022-09-23T04:51:55.016Z,6.44
2022-09-23T04:52:55.026Z,7.37
2022-09-23T04:53:55.006Z,7.85
2022-09-23T04:54:54.986Z,7.93
2022-09-23T04:55:54.955Z,7.85
2022-09-23T04:56:54.957Z,7.75
2022-09-23T04:57:54.936Z,7.75
2022-09-23T04:58:54.934Z,7.81
2022-09-23T04:59:54.904Z,8.39
2022-09-23T05:00:54.936Z,8.75
2022-09-23T05:01:54.940Z,9.05
2022-09-23T05:02:54.863Z,9.13
2022-09-23T05:03:54.864Z,9.12
2022-09-23T05:04:54.853Z,9.04
2022-09-23T05:05:54.823Z,9.13
2022-09-23T05:06:55.176Z,9.28
2022-09-23T05:07:54.801Z,9.42
2022-09-23T05:08:54.792Z,9.40
2022-09-23T05:09:54.792Z,9.34
2022-09-23T05:10:54.763Z,9.28
2022-09-23T05:11:54.752Z,9.12
2022-09-23T05:12:57.227Z,8.88
2022-09-23T05:13:54.733Z,8.76
2022-09-23T05:14:54.721Z,8.73
2022-09-23T05:15:54.709Z,8.63
2022-09-23T05:16:54.681Z,8.53
2022-09-23T05:17:54.674Z,8.51
2022-09-23T05:18:54.694Z,8.60
2022-09-23T05:19:54.649Z,8.65
2022-09-23T05:20:54.645Z,9.02
2022-09-23T05:21:54.611Z,9.46
2022-09-23T05:22:54.611Z,9.66
2022-09-23T05:23:54.590Z,9.73
2022-09-23T05:24:54.599Z,9.64
2022-09-23T05:25:54.561Z,9.46
2022-09-23T05:26:54.630Z,9.31
2022-09-23T05:27:54.609Z,9.21
2022-09-23T05:28:54.521Z,9.09
2022-09-23T05:29:54.519Z,8.90
2022-09-23T05:30:54.499Z,8.73
2022-09-23T05:31:54.543Z,8.50
2022-09-23T05:32:54.469Z,8.20
2022-09-23T05:33:54.457Z,7.93
2022-09-23T05:34:54.459Z,7.74
2022-09-23T05:35:54.428Z,7.50
2022-09-23T05:36:54.421Z,7.31
2022-09-23T05:37:54.398Z,7.16
2022-09-23T05:38:54.398Z,7.05
2022-09-23T05:39:54.388Z,6.95
2022-09-23T05:40:54.377Z,6.83
2022-09-23T05:41:54.348Z,6.72
2022-09-23T05:42:54.338Z,6.63
2022-09-23T05:43:54.326Z,6.58
2022-09-23T05:44:54.327Z,6.56
2022-09-23T05:45:54.308Z,6.54
2022-09-23T05:46:54.351Z,6.54
2022-09-23T05:47:54.269Z,6.54
2022-09-23T05:48:55.423Z,6.56
2022-09-23T05:50:00.193Z,6.56
2022-09-23T05:50:55.236Z,6.53
2022-09-23T05:51:54.217Z,6.51
2022-09-23T05:52:54.208Z,6.48
2022-09-23T05:53:54.186Z,6.47
2022-09-23T05:54:54.195Z,6.50
2022-09-23T05:55:54.238Z,6.51
2022-09-23T05:56:54.155Z,6.54
2022-09-23T05:57:54.143Z,6.56
2022-09-23T05:58:54.134Z,6.59
2022-09-23T05:59:54.204Z,6.58
2022-09-23T06:00:54.104Z,6.54
2022-09-23T06:01:56.440Z,6.53
2022-09-23T06:02:54.138Z,6.48
2022-09-23T06:03:54.102Z,6.48
2022-09-23T06:04:54.064Z,6.47
2022-09-23T06:05:54.032Z,6.46
2022-09-23T06:06:54.056Z,6.46
2022-09-23T06:07:54.003Z,6.48
2022-09-23T06:08:54.001Z,6.51
2022-09-23T06:09:54.032Z,6.59
2022-09-23T06:10:54.675Z,6.62
2022-09-23T06:11:53.960Z,6.65
2022-09-23T06:12:53.947Z,6.66
2022-09-23T06:13:53.976Z,6.65
2022-09-23T06:14:53.925Z,6.68
2022-09-23T06:15:53.979Z,6.72
2022-09-23T06:16:53.895Z,6.76
2022-09-23T06:17:53.872Z,6.79
2022-09-23T06:18:53.870Z,6.81
2022-09-23T06:19:53.891Z,6.83
2022-09-23T06:20:53.851Z,6.81
2022-09-23T06:21:53.841Z,6.79
2022-09-23T06:22:55.479Z,6.77
2022-09-23T06:24:03.812Z,6.76
2022-09-23T06:24:54.788Z,6.73
2022-09-23T06:25:53.800Z,6.76
2022-09-23T06:26:53.777Z,6.73
2022-09-23T06:27:53.748Z,6.76
2022-09-23T06:28:53.741Z,6.73
2022-09-23T06:29:53.723Z,6.79
2022-09-23T06:30:53.765Z,6.79
2022-09-23T06:31:53.732Z,6.81
2022-09-23T06:32:53.690Z,6.83
2022-09-23T06:34:02.638Z,6.91
2022-09-23T06:34:54.660Z,6.98
2022-09-23T06:35:59.252Z,7.04
2022-09-23T06:36:54.641Z,7.09
2022-09-23T06:37:53.619Z,7.16
2022-09-23T06:38:53.609Z,7.23
2022-09-23T06:39:53.588Z,7.27
2022-09-23T06:40:53.661Z,7.32
2022-09-23T06:41:53.558Z,7.38
2022-09-23T06:42:53.548Z,7.41
2022-09-23T06:43:53.538Z,7.47
2022-09-23T06:44:53.538Z,7.50
2022-09-23T06:45:53.538Z,7.55
2022-09-23T06:46:53.551Z,7.56
2022-09-23T06:47:53.486Z,7.59
2022-09-23T06:48:53.497Z,7.62
2022-09-23T06:49:53.455Z,7.71
2022-09-23T06:50:53.457Z,7.75
2022-09-23T06:51:53.426Z,7.81
2022-09-23T06:52:53.419Z,7.89
2022-09-23T06:53:53.405Z,7.97
2022-09-23T06:54:53.397Z,8.03
2022-09-23T06:55:53.406Z,8.12
2022-09-23T06:56:53.395Z,8.20
2022-09-23T06:57:53.356Z,8.29
2022-09-23T06:58:53.355Z,8.40
2022-09-23T06:59:53.325Z,8.48
2022-09-23T07:00:53.363Z,8.60
2022-09-23T07:01:53.432Z,8.72
2022-09-23T07:02:53.319Z,8.81
2022-09-23T07:03:53.274Z,8.91
2022-09-23T07:04:53.265Z,8.99
2022-09-23T07:05:53.255Z,9.04
2022-09-23T07:06:53.244Z,9.09
2022-09-23T07:07:53.214Z,9.15
2022-09-23T07:08:53.214Z,9.23
2022-09-23T07:09:53.225Z,9.31
2022-09-23T07:10:53.203Z,9.38
2022-09-23T07:11:53.175Z,9.52
2022-09-23T07:12:53.153Z,9.56
2022-09-23T07:13:53.143Z,9.63
2022-09-23T07:14:53.134Z,9.76
2022-09-23T07:15:53.158Z,9.82
2022-09-23T07:16:53.124Z,9.94
2022-09-23T07:17:53.092Z,10.06
2022-09-23T07:18:53.084Z,10.17
2022-09-23T07:19:53.088Z,10.24
2022-09-23T07:20:53.072Z,10.30
2022-09-23T07:21:53.053Z,10.34
2022-09-23T07:22:53.153Z,10.42
2022-09-23T07:23:53.014Z,10.46
2022-09-23T07:24:53.003Z,10.58
2022-09-23T07:25:52.985Z,10.73
2022-09-23T07:26:52.995Z,10.89
2022-09-23T07:27:52.962Z,10.96
2022-09-23T07:28:52.942Z,11.09
2022-09-23T07:29:52.931Z,11.24
2022-09-23T07:31:00.071Z,11.32
2022-09-23T07:31:58.660Z,11.35
2022-09-23T07:32:53.947Z,11.39
2022-09-23T07:33:52.881Z,11.43
2022-09-23T07:34:52.862Z,11.49
2022-09-23T07:35:52.851Z,11.54
2022-09-23T07:36:52.852Z,11.56
2022-09-23T07:37:52.824Z,11.59
2022-09-23T07:38:52.812Z,11.64
2022-09-23T07:39:52.798Z,11.70
2022-09-23T07:40:52.896Z,11.74
2022-09-23T07:41:52.812Z,11.83
2022-09-23T07:42:52.772Z,11.96
2022-09-23T07:43:52.741Z,12.04
2022-09-23T07:44:52.731Z,12.11
2022-09-23T07:45:52.851Z,12.20
2022-09-23T07:46:52.762Z,12.26
2022-09-23T07:47:52.692Z,12.29
2022-09-23T07:48:52.680Z,12.39
2022-09-23T07:49:52.669Z,12.51
2022-09-23T07:50:52.649Z,12.63
2022-09-23T07:51:52.650Z,12.70
2022-09-23T07:52:52.621Z,12.81
2022-09-23T07:53:52.609Z,12.84
2022-09-23T07:54:52.601Z,12.82
2022-09-23T07:55:52.589Z,12.85
2022-09-23T07:56:52.586Z,12.92
2022-09-23T07:57:52.560Z,13.04
2022-09-23T07:58:52.568Z,13.12
2022-09-23T07:59:52.618Z,13.24
2022-09-23T08:00:52.519Z,13.37
2022-09-23T08:01:52.731Z,13.49
2022-09-23T08:02:53.199Z,13.62
2022-09-23T08:03:52.501Z,13.67
2022-09-23T08:04:52.459Z,13.70
2022-09-23T08:05:52.459Z,13.81
2022-09-23T08:06:52.460Z,13.95
2022-09-23T08:07:52.439Z,13.96
2022-09-23T08:09:00.048Z,14.02
2022-09-23T08:09:53.400Z,14.13
2022-09-23T08:10:52.388Z,14.13
2022-09-23T08:11:52.388Z,14.25
2022-09-23T08:12:52.358Z,14.27
2022-09-23T08:13:52.348Z,14.29
2022-09-23T08:14:52.329Z,14.19
2022-09-23T08:15:55.507Z,14.14
2022-09-23T08:16:52.393Z,14.17
2022-09-23T08:17:52.297Z,14.25
2022-09-23T08:18:52.316Z,14.29
2022-09-23T08:19:52.271Z,14.29
2022-09-23T08:20:52.357Z,14.32
2022-09-23T08:21:52.277Z,14.38
2022-09-23T08:22:52.225Z,14.49
2022-09-23T08:23:52.217Z,14.52
2022-09-23T08:24:53.609Z,14.50
2022-09-23T08:25:52.195Z,14.53
2022-09-23T08:26:52.187Z,14.60
2022-09-23T08:27:52.167Z,14.68
2022-09-23T08:28:52.146Z,14.72
2022-09-23T08:29:52.136Z,14.74
2022-09-23T08:30:52.223Z,14.78
2022-09-23T08:31:52.127Z,14.84
2022-09-23T08:32:52.086Z,14.81
2022-09-23T08:33:52.087Z,14.80
2022-09-23T08:34:52.068Z,14.86
2022-09-23T08:35:52.222Z,14.84
2022-09-23T08:36:52.046Z,14.90
2022-09-23T08:37:52.057Z,14.93
2022-09-23T08:38:52.016Z,14.94
2022-09-23T08:39:52.005Z,15.02
2022-09-23T08:40:51.986Z,15.02
2022-09-23T08:41:56.103Z,15.06
2022-09-23T08:42:52.963Z,15.12
2022-09-23T08:43:51.946Z,15.21
2022-09-23T08:44:51.937Z,15.27
2022-09-23T08:45:51.988Z,15.28
2022-09-23T08:46:51.936Z,15.27
2022-09-23T08:47:51.898Z,15.23
2022-09-23T08:48:51.917Z,15.13
2022-09-23T08:49:51.874Z,15.02
2022-09-23T08:50:51.866Z,14.88
2022-09-23T08:51:51.856Z,14.83
2022-09-23T08:52:51.845Z,14.86
2022-09-23T08:53:51.825Z,14.83
2022-09-23T08:54:55.326Z,14.84
2022-09-23T08:55:51.796Z,14.86
2022-09-23T08:56:51.796Z,14.90
2022-09-23T08:58:14.071Z,14.94
2022-09-23T08:58:52.756Z,14.99
2022-09-23T08:59:51.746Z,15.06
2022-09-23T09:00:51.758Z,15.11
2022-09-23T09:01:51.781Z,15.11
2022-09-23T09:02:51.734Z,15.13
2022-09-23T09:03:51.685Z,15.12
2022-09-23T09:04:51.684Z,15.13
2022-09-23T09:05:54.387Z,15.19
2022-09-23T09:06:54.142Z,15.13
2022-09-23T09:07:51.633Z,15.20
2022-09-23T09:08:51.634Z,15.20
2022-09-23T09:09:51.608Z,15.15
2022-09-23T09:10:51.605Z,15.20
2022-09-23T09:11:51.575Z,15.27
2022-09-23T09:12:51.566Z,15.36
2022-09-23T09:13:51.552Z,15.39
2022-09-23T09:14:51.535Z,15.43
2022-09-23T09:15:51.577Z,15.51
2022-09-23T09:17:00.364Z,15.52
2022-09-23T09:17:52.494Z,15.56
2022-09-23T09:18:51.491Z,15.60
2022-09-23T09:19:51.464Z,15.67
2022-09-23T09:20:51.476Z,15.72
2022-09-23T09:21:51.443Z,15.75
2022-09-23T09:22:51.435Z,15.81
2022-09-23T09:23:51.433Z,15.82
2022-09-23T09:24:51.417Z,15.88
2022-09-23T09:25:51.385Z,15.89
2022-09-23T09:26:51.394Z,15.93
2022-09-23T09:27:51.363Z,15.92
2022-09-23T09:28:51.354Z,15.93
2022-09-23T09:29:51.334Z,16.00
2022-09-23T09:30:51.455Z,16.04
2022-09-23T09:31:51.316Z,16.12
2022-09-23T09:32:51.295Z,16.12
2022-09-23T09:33:51.282Z,16.12
2022-09-23T09:34:51.274Z,16.22
2022-09-23T09:35:51.255Z,16.27
2022-09-23T09:36:51.276Z,16.48
2022-09-23T09:37:53.451Z,16.58
2022-09-23T09:38:51.232Z,16.62
2022-09-23T09:39:51.195Z,16.67
2022-09-23T09:40:51.228Z,16.85
2022-09-23T09:41:51.224Z,16.98
2022-09-23T09:42:51.165Z,17.15
2022-09-23T09:43:51.153Z,17.23
2022-09-23T09:44:51.141Z,17.26
2022-09-23T09:45:55.227Z,17.26
2022-09-23T09:46:52.179Z,17.36
2022-09-23T09:47:51.093Z,17.23
2022-09-23T09:48:51.084Z,17.28
2022-09-23T09:49:51.079Z,17.38
2022-09-23T09:50:51.075Z,17.53
2022-09-23T09:51:51.054Z,17.66
2022-09-23T09:52:50.983Z,17.69
2022-09-23T09:53:50.961Z,17.23
2022-09-23T09:54:50.961Z,17.11
2022-09-23T09:55:50.939Z,17.18
2022-09-23T09:56:50.941Z,17.29
2022-09-23T09:57:50.909Z,17.38
2022-09-23T09:58:50.907Z,17.43
2022-09-23T09:59:50.879Z,17.46
2022-09-23T10:00:50.879Z,17.41
2022-09-23T10:01:50.929Z,17.35
2022-09-23T10:02:50.847Z,17.36
2022-09-23T10:03:53.046Z,17.30
2022-09-23T10:04:51.841Z,17.28
2022-09-23T10:05:50.796Z,17.41
2022-09-23T10:06:50.816Z,17.53
2022-09-23T10:07:50.785Z,17.55
2022-09-23T10:08:50.776Z,17.59
2022-09-23T10:09:50.748Z,17.73
2022-09-23T10:10:50.756Z,17.76
2022-09-23T10:11:50.736Z,17.73
2022-09-23T10:12:50.714Z,17.84
2022-09-23T10:13:50.695Z,17.85
2022-09-23T10:14:50.683Z,17.87
2022-09-23T10:15:50.664Z,17.87
2022-09-23T10:16:50.694Z,17.85
2022-09-23T10:17:50.643Z,17.92
2022-09-23T10:18:50.631Z,17.95
2022-09-23T10:19:50.612Z,17.95
2022-09-23T10:20:50.606Z,17.88
2022-09-23T10:21:50.603Z,17.85
2022-09-23T10:22:50.583Z,17.85
2022-09-23T10:23:50.560Z,17.89
2022-09-23T10:24:50.553Z,17.97
2022-09-23T10:25:50.533Z,17.97
2022-09-23T10:26:50.557Z,17.91
2022-09-23T10:27:50.503Z,17.84
2022-09-23T10:28:50.503Z,17.71
2022-09-23T10:29:50.480Z,17.55
2022-09-23T10:30:50.522Z,17.51
2022-09-23T10:31:50.474Z,17.51
2022-09-23T10:32:50.445Z,17.47
2022-09-23T10:33:50.428Z,17.48
2022-09-23T10:34:50.414Z,17.48
2022-09-23T10:35:50.405Z,17.32
2022-09-23T10:36:50.394Z,17.23
2022-09-23T10:37:50.388Z,17.18
2022-09-23T10:38:50.367Z,17.22
2022-09-23T10:39:50.346Z,17.22
2022-09-23T10:40:50.518Z,17.14
2022-09-23T10:41:50.326Z,17.11
2022-09-23T10:42:50.336Z,17.13
2022-09-23T10:43:50.299Z,17.23
2022-09-23T10:44:50.303Z,17.33
2022-09-23T10:45:50.294Z,17.46
2022-09-23T10:46:57.351Z,17.57
2022-09-23T10:47:50.263Z,17.69
2022-09-23T10:48:50.241Z,17.78
2022-09-23T10:49:50.223Z,17.85
2022-09-23T10:50:50.212Z,17.85
2022-09-23T10:51:50.203Z,17.84
2022-09-23T10:52:50.204Z,17.89
2022-09-23T10:53:50.174Z,17.95
2022-09-23T10:54:50.173Z,17.94
2022-09-23T10:55:50.145Z,17.95
2022-09-23T10:56:50.134Z,17.95
2022-09-23T10:57:50.137Z,17.78
2022-09-23T10:58:50.106Z,17.76
2022-09-23T10:59:50.098Z,17.73
2022-09-23T11:00:50.081Z,17.67
2022-09-23T11:01:50.101Z,17.67
2022-09-23T11:02:50.069Z,17.67
2022-09-23T11:03:50.048Z,17.73
2022-09-23T11:04:50.065Z,17.79
2022-09-23T11:05:50.022Z,17.89
2022-09-23T11:06:50.000Z,18.02
2022-09-23T11:07:50.009Z,18.07
2022-09-23T11:08:49.971Z,18.10
2022-09-23T11:09:49.972Z,18.12
2022-09-23T11:10:49.951Z,18.18
2022-09-23T11:11:49.941Z,18.21
2022-09-23T11:12:49.932Z,18.10
2022-09-23T11:13:54.090Z,18.03
2022-09-23T11:14:49.958Z,18.10
2022-09-23T11:15:49.903Z,18.19
2022-09-23T11:16:49.901Z,18.24
2022-09-23T11:17:49.883Z,18.27
2022-09-23T11:18:49.845Z,18.15
2022-09-23T11:19:49.835Z,18.13
2022-09-23T11:20:49.818Z,18.19
2022-09-23T11:21:49.818Z,18.33
2022-09-23T11:22:49.810Z,18.44
2022-09-23T11:23:49.787Z,18.55
2022-09-23T11:24:49.767Z,18.68
2022-09-23T11:25:49.766Z,18.73
2022-09-23T11:26:49.747Z,18.83
2022-09-23T11:27:49.749Z,19.02
2022-09-23T11:28:49.727Z,19.18
2022-09-23T11:29:49.708Z,19.20
2022-09-23T11:30:49.803Z,19.31
2022-09-23T11:31:49.679Z,19.48
2022-09-23T11:32:49.721Z,19.75
2022-09-23T11:33:49.660Z,19.91
2022-09-23T11:34:52.623Z,20.24
2022-09-23T11:35:50.639Z,20.59
2022-09-23T11:36:49.620Z,20.83
2022-09-23T11:37:49.621Z,21.06
2022-09-23T11:38:49.653Z,20.68
2022-09-23T11:39:49.584Z,20.71
2022-09-23T11:40:49.648Z,20.84
2022-09-23T11:41:49.552Z,20.93
2022-09-23T11:42:49.553Z,21.36
2022-09-23T11:43:49.522Z,21.30
2022-09-23T11:44:49.512Z,21.23
2022-09-23T11:45:49.547Z,21.61
2022-09-23T11:46:49.483Z,21.53
2022-09-23T11:47:49.492Z,21.59
2022-09-23T11:48:49.454Z,21.63
2022-09-23T11:49:49.453Z,21.24
2022-09-23T11:50:49.434Z,21.11
2022-09-23T11:51:49.440Z,21.06
2022-09-23T11:52:49.433Z,21.05
2022-09-23T11:53:49.407Z,21.11
2022-09-23T11:54:49.376Z,20.89
2022-09-23T11:55:57.179Z,20.64
2022-09-23T11:56:50.364Z,20.53
2022-09-23T11:57:49.739Z,20.51
2022-09-23T11:58:53.187Z,20.56
2022-09-23T11:59:50.321Z,20.23
2022-09-23T12:00:54.589Z,20.06
2022-09-23T12:01:50.490Z,19.86
2022-09-23T12:02:59.168Z,19.80
2022-09-23T12:03:50.383Z,19.87
2022-09-23T12:04:56.713Z,19.93
2022-09-23T12:05:50.303Z,19.98
2022-09-23T12:06:49.367Z,20.02
2022-09-23T12:07:49.228Z,20.09
2022-09-23T12:08:49.207Z,20.06
2022-09-23T12:09:58.113Z,19.91
2022-09-23T12:10:50.169Z,19.91
2022-09-23T12:11:49.169Z,19.98
2022-09-23T12:12:49.159Z,20.12
2022-09-23T12:13:49.141Z,20.05
2022-09-23T12:14:49.121Z,19.88
2022-09-23T12:15:49.111Z,19.66
2022-09-23T12:16:49.185Z,19.54
2022-09-23T12:17:49.101Z,19.42
2022-09-23T12:18:49.072Z,19.39
2022-09-23T12:19:49.060Z,19.40
2022-09-23T12:20:49.046Z,19.39
2022-09-23T12:21:51.286Z,19.39
2022-09-23T12:22:49.035Z,19.40
2022-09-23T12:23:49.012Z,19.40
2022-09-23T12:24:48.991Z,19.43
2022-09-23T12:25:48.990Z,19.46
2022-09-23T12:26:48.970Z,19.43
2022-09-23T12:27:48.992Z,19.47
2022-09-23T12:28:48.941Z,19.48
2022-09-23T12:29:48.932Z,19.48
2022-09-23T12:30:48.965Z,19.53
2022-09-23T12:31:48.903Z,19.58
2022-09-23T12:32:48.903Z,19.65
2022-09-23T12:33:48.883Z,19.54
2022-09-23T12:34:48.925Z,19.54
2022-09-23T12:35:48.852Z,19.54
2022-09-23T12:36:48.844Z,19.40
2022-09-23T12:37:48.844Z,19.31
2022-09-23T12:38:48.805Z,19.25
2022-09-23T12:39:48.794Z,19.35
2022-09-23T12:40:48.841Z,19.38
2022-09-23T12:41:48.780Z,19.42
2022-09-23T12:42:48.775Z,19.48
2022-09-23T12:43:48.756Z,19.55
2022-09-23T12:44:48.725Z,19.60
2022-09-23T12:45:49.194Z,19.61
2022-09-23T12:46:48.695Z,19.63
2022-09-23T12:47:48.696Z,19.72
2022-09-23T12:48:48.688Z,19.69
2022-09-23T12:49:48.678Z,19.68
2022-09-23T12:50:48.646Z,19.65
2022-09-23T12:51:48.636Z,19.61
2022-09-23T12:52:48.626Z,19.54
2022-09-23T12:53:48.618Z,19.55
2022-09-23T12:54:48.596Z,19.53
2022-09-23T12:55:48.587Z,19.53
2022-09-23T12:56:48.575Z,19.50
2022-09-23T12:57:48.556Z,19.54
2022-09-23T12:58:48.559Z,19.57
2022-09-23T12:59:48.535Z,19.54
2022-09-23T13:00:48.581Z,19.55
2022-09-23T13:01:48.733Z,19.55
2022-09-23T13:02:48.497Z,19.63
2022-09-23T13:03:48.488Z,19.65
2022-09-23T13:04:48.467Z,19.55
2022-09-23T13:05:48.466Z,19.55
2022-09-23T13:06:48.446Z,19.58
2022-09-23T13:07:48.428Z,19.61
2022-09-23T13:08:48.429Z,19.58
2022-09-23T13:09:48.398Z,19.55
2022-09-23T13:10:48.409Z,19.58
2022-09-23T13:11:48.368Z,19.60
2022-09-23T13:12:48.377Z,19.60
2022-09-23T13:13:48.399Z,19.63
2022-09-23T13:14:48.340Z,19.69
2022-09-23T13:15:48.328Z,19.73
2022-09-23T13:16:48.385Z,19.75
2022-09-23T13:17:48.298Z,19.78
2022-09-23T13:18:48.344Z,19.78
2022-09-23T13:19:48.270Z,19.79
2022-09-23T13:20:48.268Z,19.84
2022-09-23T13:21:48.239Z,19.87
2022-09-23T13:22:48.240Z,19.90
2022-09-23T13:23:48.239Z,19.91
2022-09-23T13:24:48.209Z,19.72
2022-09-23T13:25:48.211Z,19.66
2022-09-23T13:26:48.264Z,19.68
2022-09-23T13:27:48.170Z,19.68
2022-09-23T13:28:48.161Z,19.66
2022-09-23T13:29:48.151Z,19.69
2022-09-23T13:30:48.138Z,19.75
2022-09-23T13:31:48.147Z,19.75
2022-09-23T13:32:48.122Z,19.65
2022-09-23T13:33:48.094Z,19.54
2022-09-23T13:34:48.090Z,19.57
2022-09-23T13:35:48.061Z,19.54
2022-09-23T13:36:48.067Z,19.55
2022-09-23T13:37:48.031Z,19.54
2022-09-23T13:38:48.032Z,19.57
2022-09-23T13:39:48.021Z,19.68
2022-09-23T13:40:48.049Z,19.84
2022-09-23T13:41:47.985Z,19.94
2022-09-23T13:42:47.971Z,20.05
2022-09-23T13:43:47.960Z,20.18
2022-09-23T13:44:47.950Z,20.23
2022-09-23T13:45:47.944Z,20.23
2022-09-23T13:46:47.920Z,20.10
2022-09-23T13:47:47.900Z,20.02
2022-09-23T13:48:47.882Z,19.93
2022-09-23T13:49:47.911Z,19.91
2022-09-23T13:50:47.860Z,19.90
2022-09-23T13:51:47.852Z,19.91
2022-09-23T13:52:47.831Z,19.94
2022-09-23T13:53:47.831Z,19.94
2022-09-23T13:54:47.812Z,19.91
2022-09-23T13:55:52.257Z,19.80
2022-09-23T13:56:47.861Z,19.69
2022-09-23T13:57:47.773Z,19.68
2022-09-23T13:58:47.766Z,19.68
2022-09-23T13:59:47.743Z,19.68
2022-09-23T14:00:47.753Z,19.60
2022-09-23T14:01:47.763Z,19.54
2022-09-23T14:02:47.789Z,19.53
2022-09-23T14:03:47.709Z,19.43
2022-09-23T14:04:47.674Z,19.36
2022-09-23T14:05:47.664Z,19.31
2022-09-23T14:06:47.645Z,19.28
2022-09-23T14:07:47.645Z,19.25
2022-09-23T14:08:47.625Z,19.29
2022-09-23T14:09:47.624Z,19.32
2022-09-23T14:10:47.596Z,19.33
2022-09-23T14:11:47.594Z,19.31
2022-09-23T14:12:47.575Z,19.35
2022-09-23T14:13:47.578Z,19.32
2022-09-23T14:14:47.557Z,19.32
2022-09-23T14:15:47.547Z,19.38
2022-09-23T14:16:47.588Z,19.32
2022-09-23T14:17:47.507Z,19.20
2022-09-23T14:18:47.499Z,19.18
2022-09-23T14:19:47.507Z,19.20
2022-09-23T14:20:47.476Z,19.14
2022-09-23T14:21:47.468Z,19.14
2022-09-23T14:22:47.448Z,19.13
2022-09-23T14:23:47.438Z,19.15
2022-09-23T14:24:47.428Z,19.17
2022-09-23T14:25:47.437Z,19.15
2022-09-23T14:26:47.396Z,19.11
2022-09-23T14:27:47.389Z,19.02
2022-09-23T14:28:47.378Z,19.01
2022-09-23T14:29:47.379Z,19.01
2022-09-23T14:30:47.341Z,18.99
2022-09-23T14:31:47.451Z,18.98
2022-09-23T14:32:47.316Z,18.99
2022-09-23T14:33:47.319Z,18.99
2022-09-23T14:34:47.372Z,18.98
2022-09-23T14:35:47.283Z,18.94
2022-09-23T14:36:47.259Z,18.91
2022-09-23T14:37:47.258Z,18.87
2022-09-23T14:38:47.230Z,18.95
2022-09-23T14:39:47.253Z,18.99
2022-09-23T14:40:47.260Z,19.02
2022-09-23T14:41:47.200Z,19.08
2022-09-23T14:42:47.180Z,19.11
2022-09-23T14:43:47.252Z,19.14
2022-09-23T14:44:47.220Z,19.18
2022-09-23T14:45:47.195Z,19.20
2022-09-23T14:46:47.132Z,19.21
2022-09-23T14:47:47.131Z,19.15
2022-09-23T14:48:47.110Z,19.14
2022-09-23T14:49:47.122Z,19.10
2022-09-23T14:50:47.092Z,19.02
2022-09-23T14:51:47.071Z,18.99
2022-09-23T14:52:47.052Z,19.05
2022-09-23T14:53:47.040Z,19.14
2022-09-23T14:54:47.100Z,19.20
2022-09-23T14:55:47.014Z,19.23
2022-09-23T14:56:47.000Z,19.21
2022-09-23T14:57:46.994Z,19.25
2022-09-23T14:58:51.705Z,19.29
2022-09-23T14:59:47.972Z,19.33
2022-09-23T15:00:47.006Z,19.29
2022-09-23T15:01:46.933Z,19.21
2022-09-23T15:02:46.926Z,19.23
2022-09-23T15:03:46.934Z,19.24
2022-09-23T15:04:46.979Z,19.21
2022-09-23T15:05:46.887Z,19.18
2022-09-23T15:06:46.869Z,19.13
2022-09-23T15:07:46.856Z,19.13
2022-09-23T15:08:46.842Z,19.08
2022-09-23T15:09:46.852Z,19.02
2022-09-23T15:10:46.815Z,19.01
2022-09-23T15:11:46.804Z,19.01
2022-09-23T15:12:46.806Z,18.95
2022-09-23T15:13:46.777Z,18.94
2022-09-23T15:14:46.844Z,18.87
2022-09-23T15:15:46.755Z,18.86
2022-09-23T15:16:46.777Z,18.87
2022-09-23T15:17:46.784Z,18.86
2022-09-23T15:18:46.703Z,18.86
2022-09-23T15:19:46.723Z,18.84
2022-09-23T15:20:46.694Z,18.83
2022-09-23T15:21:46.674Z,18.82
2022-09-23T15:22:46.665Z,18.76
2022-09-23T15:23:46.650Z,18.72
2022-09-23T15:24:46.750Z,18.73
2022-09-23T15:25:46.643Z,18.70
2022-09-23T15:26:46.605Z,18.72
2022-09-23T15:27:46.596Z,18.70
2022-09-23T15:28:46.576Z,18.68
2022-09-23T15:29:46.566Z,18.68
2022-09-23T15:30:46.564Z,18.67
2022-09-23T15:31:46.583Z,18.62
2022-09-23T15:32:46.558Z,18.61
2022-09-23T15:33:46.517Z,18.59
2022-09-23T15:34:46.500Z,18.61
2022-09-23T15:35:46.515Z,18.57
2022-09-23T15:36:46.475Z,18.55
2022-09-23T15:37:46.466Z,18.54
2022-09-23T15:38:46.445Z,18.50
2022-09-23T15:39:46.450Z,18.50
2022-09-23T15:40:46.454Z,18.46
2022-09-23T15:41:46.446Z,18.43
2022-09-23T15:42:46.406Z,18.39
2022-09-23T15:43:46.377Z,18.37
2022-09-23T15:44:46.367Z,18.34
2022-09-23T15:45:46.427Z,18.31
2022-09-23T15:46:46.337Z,18.28
2022-09-23T15:47:46.338Z,18.27
2022-09-23T15:48:46.307Z,18.24
2022-09-23T15:49:46.311Z,18.21
2022-09-23T15:50:46.299Z,18.22
2022-09-23T15:51:46.287Z,18.19
2022-09-23T15:52:46.267Z,18.18
2022-09-23T15:53:46.258Z,18.17
2022-09-23T15:54:46.255Z,18.10
2022-09-23T15:55:46.239Z,18.06
2022-09-23T15:56:46.229Z,18.03
2022-09-23T15:57:46.223Z,18.03
2022-09-23T15:58:46.190Z,18.03
2022-09-23T15:59:46.177Z,18.04
2022-09-23T16:00:46.192Z,18.03
2022-09-23T16:01:46.213Z,18.02
2022-09-23T16:02:46.198Z,18.02
2022-09-23T16:03:46.120Z,18.02
2022-09-23T16:04:46.249Z,17.99
2022-09-23T16:05:46.129Z,17.97
2022-09-23T16:06:46.088Z,17.95
2022-09-23T16:07:46.131Z,17.94
2022-09-23T16:08:46.048Z,17.91
2022-09-23T16:09:46.048Z,17.89
2022-09-23T16:10:46.020Z,17.88
2022-09-23T16:11:46.018Z,17.88
2022-09-23T16:12:45.998Z,17.85
2022-09-23T16:13:45.989Z,17.84
2022-09-23T16:14:46.129Z,17.82
2022-09-23T16:15:45.958Z,17.81
2022-09-23T16:16:46.008Z,17.79
2022-09-23T16:17:45.942Z,17.78
2022-09-23T16:18:45.921Z,17.78
2022-09-23T16:19:45.914Z,17.74
2022-09-23T16:20:45.898Z,17.74
2022-09-23T16:21:45.887Z,17.71
2022-09-23T16:22:45.859Z,17.69
2022-09-23T16:23:45.901Z,17.66
2022-09-23T16:24:45.857Z,17.66
2022-09-23T16:25:45.827Z,17.63
2022-09-23T16:26:45.809Z,17.62
2022-09-23T16:27:45.810Z,17.57
2022-09-23T16:28:45.788Z,17.55
2022-09-23T16:29:45.779Z,17.54
2022-09-23T16:30:45.770Z,17.54
2022-09-23T16:31:45.961Z,17.51
2022-09-23T16:32:45.806Z,17.51
2022-09-23T16:33:45.719Z,17.44
2022-09-23T16:34:45.721Z,17.43
2022-09-23T16:35:45.699Z,17.41
2022-09-23T16:36:45.678Z,17.40
2022-09-23T16:37:45.670Z,17.35
2022-09-23T16:38:45.650Z,17.35
2022-09-23T16:39:45.667Z,17.33
2022-09-23T16:40:47.325Z,17.32
2022-09-23T16:41:45.618Z,17.30
2022-09-23T16:42:45.600Z,17.29
2022-09-23T16:43:45.591Z,17.29
2022-09-23T16:44:45.670Z,17.25
2022-09-23T16:45:45.793Z,17.22
2022-09-23T16:46:45.551Z,17.20
2022-09-23T16:47:52.608Z,17.13
2022-09-23T16:48:51.414Z,17.13
2022-09-23T16:49:46.518Z,17.08
2022-09-23T16:50:45.519Z,17.06
2022-09-23T16:51:45.477Z,17.03
2022-09-23T16:52:45.489Z,17.00
2022-09-23T16:53:45.460Z,17.00
2022-09-23T16:54:45.449Z,16.96
2022-09-23T16:55:45.442Z,16.92
2022-09-23T16:56:45.520Z,16.86
2022-09-23T16:57:45.428Z,16.81
2022-09-23T16:58:45.397Z,16.78
2022-09-23T16:59:45.388Z,16.75
2022-09-23T17:00:45.489Z,16.75
2022-09-23T17:01:45.456Z,16.71
2022-09-23T17:02:45.349Z,16.63
2022-09-23T17:03:45.327Z,16.62
2022-09-23T17:04:45.309Z,16.62
2022-09-23T17:05:46.788Z,16.59
2022-09-23T17:06:45.289Z,16.60
2022-09-23T17:07:45.267Z,16.60
2022-09-23T17:08:45.268Z,16.56
2022-09-23T17:09:45.264Z,16.56
2022-09-23T17:10:45.259Z,16.50
2022-09-23T17:11:45.219Z,16.48
2022-09-23T17:12:45.209Z,16.44
2022-09-23T17:13:45.198Z,16.45
2022-09-23T17:14:45.178Z,16.40
2022-09-23T17:15:45.179Z,16.38
2022-09-23T17:16:45.267Z,16.35
2022-09-23T17:17:45.154Z,16.31
2022-09-23T17:18:45.119Z,16.26
2022-09-23T17:19:45.129Z,16.30
2022-09-23T17:20:45.130Z,16.33
2022-09-23T17:21:45.130Z,16.33
2022-09-23T17:22:45.069Z,16.30
2022-09-23T17:23:45.058Z,16.23
2022-09-23T17:24:45.049Z,16.15
2022-09-23T17:25:45.048Z,16.11
2022-09-23T17:26:47.320Z,16.04
2022-09-23T17:27:46.019Z,16.00
2022-09-23T17:28:44.996Z,15.96